Martinsville, IL (62442)

3:34 AM CST on February 11, 2016 (GMT -0600)
APRSWXNET | | Change Station
CLOSE
Current Station
Personal Weather Station
Location: Casey, IL
Elevation: 652 ft
Nearby Weather Stations

Elev 652 ft 39.30 °N, 87.98 °W | Updated 20 minutes ago

Overcast
Overcast
17 °F
Feels Like 8 °F
N
6
Wind Variable Wind from NNE
Gusts 9.0 mph

Today
High -- | Low -- °F
--% Chance of Precip.
Yesterday
High -- | Low -- °F
Precip. -- in
Pressure 30.23 in
Visibility 10.0 miles
Clouds Overcast 5500 ft
Windchill 8 °F
Dew Point 10 °F
Humidity 73%
Rainfall in
Snow Depth Not available.
6:48 AM 5:23 PM
Waxing Crescent, 10% visible
METAR KMTO 110853Z AUTO 35005KT 10SM OVC055 M08/M13 A3019 RMK AO2 SLP235 T10781133 53012
Pressure 30.23 in
Visibility 10.0 miles
Clouds Overcast 5500 ft
Windchill 8 °F
Dew Point 10 °F
Humidity 73%
Rainfall in
Snow Depth Not available.
6:48 AM 5:23 PM
Waxing Crescent, 10% visible
METAR KMTO 110853Z AUTO 35005KT 10SM OVC055 M08/M13 A3019 RMK AO2 SLP235 T10781133 53012

10-Day Weather Forecast

Almanac

Astronomy

Feb. 11, 2016 Rise Set
Actual Time
Civil Twilight
Nautical Twilight
Astronomical Twilight
Moon
Length of Visible Light
Length of Day
Tomorrow will be .
, % of the Moon is Illuminated

Today's Extremes

State Highs State Lows

Community

WunderPhotos

Upload Photos

1,892,030 photos uploaded!

WunderBlog® & News

Nearby

Air Quality

  Air Quality AQ Index Pollutant
Not available.

Snow Depth

Station Depth Elevation

Earthquake Activity

City Distance Mag. Time & Date
Minimum magnitude displayed is 2.5.

Coastal Water Temperatures

Place Temperature

Stations

Nearby Weather Stations

Station Location Temp. Windchill Dew Point Humidity Wind Precip. Elev Updated Type
                   

Watches & Warnings

There are currently no watches in effect.